Time;durP1;ratioP1;P1;durP2;ratioP2;P2;SDS_P1;SDS_P2;PMS_P1;PMS_P2;Temp;Humidity;BMP_temperature;BMP_pressure;BME280_temperature;BME280_humidity;BME280_pressure;Samples;Min_cycle;Max_cycle;Signal;HPM_P1;HPM_P2
2022/09/23 00:00:47;;;;;;;5.03;2.70;;;;;;;;;;8327756;28;20426;-59
2022/09/23 00:04:47;;;;;;;6.05;2.70;;;;;;;;;;8328613;28;20626;-59
2022/09/23 00:08:51;;;;;;;5.63;3.20;;;;;;;;;;8328695;28;20025;-56
2022/09/23 00:12:51;;;;;;;3.60;2.83;;;;;;;;;;8343818;28;20267;-57
2022/09/23 00:16:51;;;;;;;4.90;2.92;;;;;;;;;;8328479;28;20040;-58
2022/09/23 00:20:52;;;;;;;3.67;2.80;;;;;;;;;;8331529;28;20029;-57
2022/09/23 00:24:52;;;;;;;3.97;3.07;;;;;;;;;;8327874;28;20105;-58
2022/09/23 00:28:52;;;;;;;4.43;2.72;;;;;;;;;;8326720;28;20287;-57
2022/09/23 00:32:52;;;;;;;4.72;2.70;;;;;;;;;;8326113;28;20152;-57
2022/09/23 00:36:53;;;;;;;3.90;2.92;;;;;;;;;;8328836;28;20028;-59
2022/09/23 00:40:53;;;;;;;3.80;2.43;;;;;;;;;;8328540;28;20033;-58
2022/09/23 00:44:54;;;;;;;4.25;2.80;;;;;;;;;;8328464;28;20032;-59
2022/09/23 00:48:56;;;;;;;4.22;2.38;;;;;;;;;;8327902;28;20036;-57
2022/09/23 00:52:58;;;;;;;2.97;2.47;;;;;;;;;;8328714;28;20596;-59
2022/09/23 00:56:58;;;;;;;3.88;2.63;;;;;;;;;;8329696;28;20389;-58
2022/09/23 01:01:00;;;;;;;3.88;3.00;;;;;;;;;;8326532;28;20036;-58
2022/09/23 01:05:01;;;;;;;3.03;2.40;;;;;;;;;;8328918;28;20048;-59
2022/09/23 01:09:02;;;;;;;3.88;2.60;;;;;;;;;;8326130;28;20021;-57
2022/09/23 01:13:02;;;;;;;3.83;2.20;;;;;;;;;;8327267;28;20099;-57
2022/09/23 01:17:10;;;;;;;2.90;2.08;;;;;;;;;;8324303;28;20142;-58
2022/09/23 01:21:14;;;;;;;3.55;2.40;;;;;;;;;;8326612;28;20017;-57
2022/09/23 01:25:32;;;;;;;2.83;2.40;;;;;;;;;;8323432;28;20024;-58
2022/09/23 01:29:59;;;;;;;3.63;2.58;;;;;;;;;;8327454;28;20287;-59
2022/09/23 01:34:06;;;;;;;4.32;2.35;;;;;;;;;;8322006;28;20033;-58
2022/09/23 01:38:20;;;;;;;4.35;2.45;;;;;;;;;;8327747;28;20115;-59
2022/09/23 01:42:26;;;;;;;4.80;2.80;;;;;;;;;;8325850;28;20611;-57
2022/09/23 01:46:29;;;;;;;4.22;2.28;;;;;;;;;;8325662;28;20037;-59
2022/09/23 01:55:00;;;;;;;2.97;2.28;;;;;;;;;;8324376;28;20908;-59
2022/09/23 01:59:21;;;;;;;3.15;2.22;;;;;;;;;;8325552;28;20127;-59
2022/09/23 02:03:26;;;;;;;4.55;2.58;;;;;;;;;;8323624;28;20033;-59
2022/09/23 02:07:29;;;;;;;3.88;2.55;;;;;;;;;;8327252;28;20039;-57
2022/09/23 02:11:35;;;;;;;4.47;2.75;;;;;;;;;;8324284;28;20288;-57
2022/09/23 02:15:39;;;;;;;3.78;2.63;;;;;;;;;;8322591;28;20040;-57
2022/09/23 02:19:47;;;;;;;6.90;3.30;;;;;;;;;;8323606;28;20873;-58
2022/09/23 02:23:49;;;;;;;3.70;2.70;;;;;;;;;;8325533;28;20094;-58
2022/09/23 02:27:55;;;;;;;2.25;1.90;;;;;;;;;;8326462;28;20585;-58
2022/09/23 02:31:58;;;;;;;2.67;2.13;;;;;;;;;;8321578;28;20037;-59
2022/09/23 02:36:04;;;;;;;2.75;2.30;;;;;;;;;;8328319;28;20020;-59
2022/09/23 02:40:23;;;;;;;2.53;2.15;;;;;;;;;;8325458;28;20017;-57
2022/09/23 02:44:24;;;;;;;2.40;2.20;;;;;;;;;;8325219;28;20767;-58
2022/09/23 02:48:36;;;;;;;5.50;2.72;;;;;;;;;;8321244;28;20037;-57
2022/09/23 02:52:37;;;;;;;3.35;2.63;;;;;;;;;;8322837;28;20032;-58
2022/09/23 02:56:37;;;;;;;4.07;2.65;;;;;;;;;;8324062;28;20025;-59
2022/09/23 03:00:48;;;;;;;3.75;2.50;;;;;;;;;;8319403;28;20044;-59
2022/09/23 03:05:11;;;;;;;4.57;3.30;;;;;;;;;;8320918;28;20122;-57
2022/09/23 03:09:23;;;;;;;4.90;2.90;;;;;;;;;;8319408;28;20013;-57
2022/09/23 03:13:42;;;;;;;4.43;3.50;;;;;;;;;;8326861;28;20520;-57
2022/09/23 03:17:54;;;;;;;4.35;3.17;;;;;;;;;;8323844;28;20912;-57
2022/09/23 03:22:01;;;;;;;3.00;2.70;;;;;;;;;;8321796;28;20036;-57
2022/09/23 03:26:05;;;;;;;3.92;2.92;;;;;;;;;;8322329;28;20028;-57
2022/09/23 03:30:06;;;;;;;5.75;3.22;;;;;;;;;;8326450;28;20359;-59
2022/09/23 03:34:08;;;;;;;3.75;2.67;;;;;;;;;;8330893;28;20021;-58
2022/09/23 03:38:14;;;;;;;3.47;2.63;;;;;;;;;;8329320;28;20032;-59
2022/09/23 03:42:22;;;;;;;4.50;3.10;;;;;;;;;;8329626;28;20032;-58
2022/09/23 03:46:27;;;;;;;4.10;2.60;;;;;;;;;;8329350;28;20124;-57
2022/09/23 03:50:28;;;;;;;3.72;2.90;;;;;;;;;;8328913;28;20500;-57
2022/09/23 03:54:28;;;;;;;2.85;2.15;;;;;;;;;;8329717;28;20033;-57
2022/09/23 03:58:29;;;;;;;2.67;2.30;;;;;;;;;;8322916;28;20078;-57
2022/09/23 04:02:29;;;;;;;2.70;1.92;;;;;;;;;;8326447;28;20600;-57
2022/09/23 04:06:29;;;;;;;2.42;2.00;;;;;;;;;;8330285;28;20063;-57
2022/09/23 04:10:29;;;;;;;2.30;2.10;;;;;;;;;;8328402;28;20021;-57
2022/09/23 04:14:29;;;;;;;2.22;1.90;;;;;;;;;;8327062;28;20029;-57
2022/09/23 04:18:30;;;;;;;3.45;1.92;;;;;;;;;;8329896;28;20037;-57
2022/09/23 04:22:31;;;;;;;2.58;2.00;;;;;;;;;;8327562;28;20025;-57
2022/09/23 04:26:32;;;;;;;2.10;1.90;;;;;;;;;;8329298;28;20136;-57
2022/09/23 04:30:32;;;;;;;2.13;1.92;;;;;;;;;;8324242;28;20060;-57
2022/09/23 04:34:32;;;;;;;4.05;2.80;;;;;;;;;;8328640;28;20694;-61
2022/09/23 04:38:33;;;;;;;2.85;2.20;;;;;;;;;;8327224;28;20026;-57
2022/09/23 04:42:33;;;;;;;2.53;1.93;;;;;;;;;;8324715;28;20049;-57
2022/09/23 04:46:33;;;;;;;2.70;2.00;;;;;;;;;;8320439;28;20330;-57
2022/09/23 04:50:34;;;;;;;3.72;1.88;;;;;;;;;;8326812;28;20027;-57
2022/09/23 04:54:34;;;;;;;2.70;1.80;;;;;;;;;;8325063;28;20036;-59
2022/09/23 04:58:34;;;;;;;2.05;1.85;;;;;;;;;;8324113;28;20040;-57
2022/09/23 05:02:40;;;;;;;2.85;2.22;;;;;;;;;;8327460;28;20041;-59
2022/09/23 05:06:43;;;;;;;2.50;2.28;;;;;;;;;;8325921;28;20026;-57
2022/09/23 05:10:45;;;;;;;5.47;2.40;;;;;;;;;;8323698;28;20029;-58
2022/09/23 05:14:45;;;;;;;2.15;1.92;;;;;;;;;;8326959;28;20040;-61
2022/09/23 05:18:46;;;;;;;2.25;1.98;;;;;;;;;;8323949;28;20041;-57
2022/09/23 05:22:47;;;;;;;2.13;1.70;;;;;;;;;;8326358;28;20024;-57
2022/09/23 05:26:47;;;;;;;2.13;1.92;;;;;;;;;;8324629;28;20120;-57
2022/09/23 05:30:47;;;;;;;3.15;2.00;;;;;;;;;;8325913;28;20051;-59
2022/09/23 05:34:47;;;;;;;2.45;1.98;;;;;;;;;;8324840;28;20060;-58
2022/09/23 05:38:48;;;;;;;3.33;2.10;;;;;;;;;;8326034;28;20060;-56
2022/09/23 05:42:50;;;;;;;1.90;1.80;;;;;;;;;;8325618;28;20797;-59
2022/09/23 05:46:50;;;;;;;5.57;2.20;;;;;;;;;;8325744;28;20847;-57
2022/09/23 05:50:51;;;;;;;2.63;2.30;;;;;;;;;;8324963;28;20035;-57
2022/09/23 05:54:51;;;;;;;4.95;2.15;;;;;;;;;;8325779;28;20282;-57
2022/09/23 05:58:52;;;;;;;2.70;2.07;;;;;;;;;;8324600;28;20025;-57
2022/09/23 06:02:52;;;;;;;2.30;2.10;;;;;;;;;;8321485;28;20067;-57
2022/09/23 06:06:52;;;;;;;6.50;2.47;;;;;;;;;;8323682;28;20060;-57
2022/09/23 06:10:53;;;;;;;2.20;2.00;;;;;;;;;;8320533;28;20130;-57
2022/09/23 06:14:53;;;;;;;2.50;2.30;;;;;;;;;;8318191;28;20028;-58
2022/09/23 06:18:53;;;;;;;3.17;2.70;;;;;;;;;;8314506;28;20041;-57
2022/09/23 06:22:53;;;;;;;5.13;2.60;;;;;;;;;;8312974;28;20060;-58
2022/09/23 06:26:54;;;;;;;3.58;2.80;;;;;;;;;;8313025;28;20580;-57
2022/09/23 06:30:58;;;;;;;5.20;4.30;;;;;;;;;;8313264;28;20041;-58
2022/09/23 06:34:58;;;;;;;7.50;4.63;;;;;;;;;;8315356;28;20021;-58
2022/09/23 06:38:58;;;;;;;9.73;4.50;;;;;;;;;;8313123;28;20122;-59
2022/09/23 06:42:59;;;;;;;3.83;3.40;;;;;;;;;;8310127;28;20021;-58
2022/09/23 06:46:59;;;;;;;3.92;3.20;;;;;;;;;;8313387;28;20061;-57
2022/09/23 06:51:03;;;;;;;3.80;3.28;;;;;;;;;;8314355;28;20024;-58
2022/09/23 06:55:03;;;;;;;;;;;;;;;;;;8316714;28;20025;-58
2022/09/23 06:59:04;;;;;;;4.22;3.20;;;;;;;;;;8311698;28;20159;-58
2022/09/23 07:03:07;;;;;;;3.72;2.83;;;;;;;;;;8308541;28;20045;-59
2022/09/23 07:07:09;;;;;;;6.63;3.07;;;;;;;;;;8316787;28;20037;-58
2022/09/23 07:11:11;;;;;;;4.28;3.20;;;;;;;;;;8316203;28;20362;-59
2022/09/23 07:15:11;;;;;;;3.75;3.20;;;;;;;;;;8312910;28;20021;-60
2022/09/23 07:19:11;;;;;;;4.13;2.90;;;;;;;;;;8311943;28;20033;-59
2022/09/23 07:23:12;;;;;;;3.65;2.63;;;;;;;;;;8315308;28;20049;-59
2022/09/23 07:27:15;;;;;;;3.72;2.58;;;;;;;;;;8315373;28;20337;-59
2022/09/23 07:31:16;;;;;;;5.20;3.10;;;;;;;;;;8312625;28;20230;-59
2022/09/23 07:35:16;;;;;;;4.88;3.10;;;;;;;;;;8315520;28;20025;-59
2022/09/23 07:39:16;;;;;;;16.02;10.65;;;;;;;;;;8311880;28;20585;-59
2022/09/23 07:43:18;;;;;;;3.40;3.10;;;;;;;;;;8312075;28;20048;-59
2022/09/23 07:47:19;;;;;;;7.30;5.07;;;;;;;;;;8316231;28;20507;-60
2022/09/23 07:51:21;;;;;;;2.92;2.40;;;;;;;;;;8316124;28;20381;-60
2022/09/23 07:55:21;;;;;;;4.25;2.60;;;;;;;;;;8315798;28;20499;-59
2022/09/23 07:59:21;;;;;;;3.38;2.42;;;;;;;;;;8315364;28;20260;-60
2022/09/23 08:03:22;;;;;;;5.20;3.53;;;;;;;;;;8311677;28;20063;-60
2022/09/23 08:07:22;;;;;;;3.03;2.13;;;;;;;;;;8313067;28;20021;-59
2022/09/23 08:11:23;;;;;;;3.97;2.30;;;;;;;;;;8312903;28;20028;-60
2022/09/23 08:15:24;;;;;;;3.13;2.08;;;;;;;;;;8311630;28;20146;-59
2022/09/23 08:19:24;;;;;;;2.80;1.95;;;;;;;;;;8320093;28;20369;-60
2022/09/23 08:23:24;;;;;;;4.95;3.40;;;;;;;;;;8319358;28;20037;-59
2022/09/23 08:27:26;;;;;;;4.85;2.83;;;;;;;;;;8320684;28;20356;-60
2022/09/23 08:31:27;;;;;;;4.38;2.40;;;;;;;;;;8318221;28;20292;-59
2022/09/23 08:35:27;;;;;;;3.40;2.20;;;;;;;;;;8319883;28;20463;-60
2022/09/23 08:39:28;;;;;;;7.60;3.15;;;;;;;;;;8318483;28;20033;-60
2022/09/23 08:43:30;;;;;;;2.45;2.10;;;;;;;;;;8318551;28;20366;-59
2022/09/23 08:47:51;;;;;;;3.10;1.98;;;;;;;;;;8319410;28;20045;-59
2022/09/23 08:51:53;;;;;;;3.63;2.30;;;;;;;;;;8320812;28;20091;-59
2022/09/23 08:55:56;;;;;;;3.35;2.47;;;;;;;;;;8318794;28;20039;-60
2022/09/23 08:59:57;;;;;;;;;;;;;;;;;;8320816;28;20052;-59
2022/09/23 09:03:58;;;;;;;4.93;2.22;;;;;;;;;;8319471;28;20267;-60
2022/09/23 09:07:59;;;;;;;5.93;2.50;;;;;;;;;;8318132;28;20032;-59
2022/09/23 09:12:07;;;;;;;2.38;2.17;;;;;;;;;;8317949;28;20024;-59
2022/09/23 09:16:10;;;;;;;13.65;4.57;;;;;;;;;;8312780;28;20069;-60
2022/09/23 09:20:13;;;;;;;5.65;2.47;;;;;;;;;;8317284;28;20021;-60
2022/09/23 09:24:20;;;;;;;3.50;2.63;;;;;;;;;;8316838;28;20401;-59
2022/09/23 09:28:26;;;;;;;5.78;2.83;;;;;;;;;;8319508;28;20599;-60
2022/09/23 09:32:56;;;;;;;7.90;3.28;;;;;;;;;;8318731;28;20029;-59
2022/09/23 09:37:06;;;;;;;6.80;2.92;;;;;;;;;;8254414;28;20110;-59
2022/09/23 09:41:26;;;;;;;4.65;2.58;;;;;;;;;;8319301;28;20063;-59
2022/09/23 09:45:52;;;;;;;3.45;2.30;;;;;;;;;;8316710;28;20047;-59
2022/09/23 09:49:57;;;;;;;6.05;2.70;;;;;;;;;;8315642;28;20028;-60
2022/09/23 09:54:21;;;;;;;2.88;2.47;;;;;;;;;;8316374;28;20020;-60
2022/09/23 09:58:22;;;;;;;;;;;;;;;;;;8319798;28;20029;-59
2022/09/23 10:02:29;;;;;;;2.85;2.25;;;;;;;;;;8317566;28;19970;-59
2022/09/23 10:06:31;;;;;;;4.95;2.97;;;;;;;;;;8315722;28;20537;-59
2022/09/23 10:10:31;;;;;;;7.20;2.85;;;;;;;;;;8315872;28;20686;-60
2022/09/23 10:14:31;;;;;;;3.72;2.00;;;;;;;;;;8316261;28;20020;-60
2022/09/23 10:18:37;;;;;;;3.40;2.55;;;;;;;;;;8314326;28;20697;-59
2022/09/23 10:22:39;;;;;;;3.65;2.55;;;;;;;;;;8310854;28;20025;-59
2022/09/23 10:26:47;;;;;;;3.65;2.50;;;;;;;;;;8316478;28;20028;-60
2022/09/23 10:31:02;;;;;;;4.78;2.60;;;;;;;;;;8316631;28;20667;-59
2022/09/23 10:35:08;;;;;;;3.10;2.28;;;;;;;;;;8316686;28;20020;-59
2022/09/23 10:47:53;;;;;;;2.90;1.90;;;;;;;;;;8314078;28;20584;-60
2022/09/23 10:52:13;;;;;;;2.38;1.80;;;;;;;;;;8318710;28;20490;-60
2022/09/23 10:56:28;;;;;;;3.65;2.17;;;;;;;;;;8314823;28;20016;-59
2022/09/23 11:00:36;;;;;;;3.30;2.15;;;;;;;;;;8314704;28;20457;-60
2022/09/23 11:04:36;;;;;;;2.75;1.90;;;;;;;;;;8312216;28;20028;-60
2022/09/23 11:08:42;;;;;;;5.60;2.58;;;;;;;;;;8310187;28;20810;-60
2022/09/23 11:12:54;;;;;;;4.07;2.10;;;;;;;;;;8316084;28;20033;-59
2022/09/23 11:17:13;;;;;;;2.97;2.28;;;;;;;;;;8316109;28;20036;-61
2022/09/23 11:21:13;;;;;;;2.38;1.92;;;;;;;;;;8312873;28;20020;-59
2022/09/23 11:25:20;;;;;;;3.42;2.30;;;;;;;;;;8311127;28;20325;-59
2022/09/23 11:29:41;;;;;;;2.92;1.95;;;;;;;;;;8314630;28;20037;-60
2022/09/23 11:33:57;;;;;;;6.20;2.53;;;;;;;;;;8313655;28;20028;-61
2022/09/23 11:38:03;;;;;;;5.30;2.40;;;;;;;;;;8309241;28;20436;-59
2022/09/23 11:42:08;;;;;;;3.30;2.40;;;;;;;;;;8314790;28;20107;-59
2022/09/23 11:46:17;;;;;;;3.55;2.47;;;;;;;;;;8313456;28;20949;-59
2022/09/23 11:50:37;;;;;;;4.40;2.30;;;;;;;;;;8312887;28;20022;-59
2022/09/23 11:54:41;;;;;;;3.72;1.98;;;;;;;;;;8318948;28;20547;-59
2022/09/23 11:58:47;;;;;;;2.20;1.77;;;;;;;;;;8318478;28;20401;-60
2022/09/23 12:03:14;;;;;;;2.30;2.00;;;;;;;;;;8316677;28;20438;-59
2022/09/23 12:07:21;;;;;;;5.25;2.00;;;;;;;;;;8320227;28;20384;-59
2022/09/23 12:11:33;;;;;;;3.97;1.40;;;;;;;;;;8318973;28;20025;-60
2022/09/23 12:15:38;;;;;;;2.55;1.35;;;;;;;;;;8321490;28;20846;-60
2022/09/23 12:19:54;;;;;;;2.75;1.30;;;;;;;;;;8328714;28;20035;-60
2022/09/23 12:23:58;;;;;;;1.48;1.10;;;;;;;;;;8328523;28;20022;-60
2022/09/23 12:28:09;;;;;;;2.08;1.30;;;;;;;;;;8326601;28;20152;-60
2022/09/23 12:32:16;;;;;;;1.55;1.20;;;;;;;;;;8327253;28;20421;-59
2022/09/23 12:36:24;;;;;;;1.83;1.27;;;;;;;;;;8329643;28;20072;-59
2022/09/23 12:40:33;;;;;;;3.00;1.08;;;;;;;;;;8324958;28;20017;-59
2022/09/23 12:44:38;;;;;;;2.22;1.20;;;;;;;;;;8329152;28;20164;-60
2022/09/23 12:48:56;;;;;;;1.88;1.10;;;;;;;;;;8327483;28;20079;-59
2022/09/23 12:53:17;;;;;;;2.35;1.30;;;;;;;;;;8327693;28;20031;-60
2022/09/23 12:57:20;;;;;;;1.50;1.40;;;;;;;;;;8325688;28;20033;-60
2022/09/23 13:01:21;;;;;;;1.55;1.33;;;;;;;;;;8326361;28;20041;-60
2022/09/23 13:09:46;;;;;;;2.17;1.20;;;;;;;;;;8321329;28;20041;-60
2022/09/23 13:13:48;;;;;;;1.52;1.25;;;;;;;;;;8324880;28;20064;-58
2022/09/23 13:17:49;;;;;;;4.57;1.30;;;;;;;;;;8327191;28;20064;-60
2022/09/23 13:21:50;;;;;;;2.17;1.30;;;;;;;;;;8326047;28;20485;-59
2022/09/23 13:25:52;;;;;;;1.45;1.25;;;;;;;;;;8323722;28;20028;-60
2022/09/23 13:30:12;;;;;;;1.40;1.20;;;;;;;;;;8321936;28;20471;-59
2022/09/23 13:34:14;;;;;;;2.45;1.23;;;;;;;;;;8314176;28;20033;-60
2022/09/23 13:38:19;;;;;;;1.58;1.23;;;;;;;;;;8327581;28;20111;-60
2022/09/23 13:42:25;;;;;;;5.18;1.63;;;;;;;;;;8326479;28;20017;-59
2022/09/23 13:46:31;;;;;;;1.58;1.20;;;;;;;;;;8326446;28;20041;-59
2022/09/23 13:50:33;;;;;;;2.53;1.30;;;;;;;;;;8326457;28;20057;-59
2022/09/23 13:54:47;;;;;;;2.88;1.48;;;;;;;;;;8328725;28;20032;-59
2022/09/23 13:58:48;;;;;;;6.07;1.38;;;;;;;;;;8324717;28;20111;-59
2022/09/23 14:02:49;;;;;;;4.05;1.20;;;;;;;;;;8325733;28;20378;-60
2022/09/23 14:06:50;;;;;;;1.73;1.25;;;;;;;;;;8325258;28;20120;-59
2022/09/23 14:10:52;;;;;;;2.60;1.00;;;;;;;;;;8324658;28;20028;-59
2022/09/23 14:14:52;;;;;;;3.13;1.02;;;;;;;;;;8325104;28;20032;-60
2022/09/23 14:18:59;;;;;;;1.90;0.98;;;;;;;;;;8325045;28;20163;-59
2022/09/23 14:23:06;;;;;;;2.58;1.20;;;;;;;;;;8324877;28;20021;-59
2022/09/23 14:27:06;;;;;;;1.40;1.23;;;;;;;;;;8323787;28;20087;-60
2022/09/23 14:31:06;;;;;;;1.30;1.10;;;;;;;;;;8323574;28;20030;-59
2022/09/23 14:35:20;;;;;;;2.75;1.10;;;;;;;;;;8322014;28;20055;-60
2022/09/23 14:39:21;;;;;;;1.45;1.13;;;;;;;;;;8322675;28;20071;-59
2022/09/23 14:43:26;;;;;;;1.27;1.17;;;;;;;;;;8322269;28;20033;-60
2022/09/23 14:47:29;;;;;;;2.10;1.10;;;;;;;;;;8325365;28;20032;-59
2022/09/23 14:51:34;;;;;;;1.67;1.20;;;;;;;;;;8324772;28;20031;-60
2022/09/23 14:55:34;;;;;;;1.13;1.13;;;;;;;;;;8322194;28;20049;-59
2022/09/23 14:59:35;;;;;;;1.55;1.00;;;;;;;;;;8322057;28;20363;-59
2022/09/23 15:03:45;;;;;;;2.38;1.10;;;;;;;;;;8324178;28;20115;-59
2022/09/23 15:07:47;;;;;;;2.90;1.20;;;;;;;;;;8326089;28;20675;-59
2022/09/23 15:11:50;;;;;;;1.60;1.00;;;;;;;;;;8322027;28;20584;-59
2022/09/23 15:15:51;;;;;;;0.90;0.90;;;;;;;;;;8321954;28;20844;-59
2022/09/23 15:19:55;;;;;;;1.80;1.10;;;;;;;;;;8321707;28;20021;-60
2022/09/23 15:23:56;;;;;;;1.95;1.10;;;;;;;;;;8323305;28;20110;-59
2022/09/23 15:28:02;;;;;;;0.82;0.82;;;;;;;;;;8320316;28;20057;-60
2022/09/23 15:32:02;;;;;;;1.35;1.17;;;;;;;;;;8320449;28;20144;-60
2022/09/23 15:36:03;;;;;;;4.25;1.17;;;;;;;;;;8324372;28;20623;-59
2022/09/23 15:40:03;;;;;;;2.45;1.20;;;;;;;;;;8320932;28;20013;-58
2022/09/23 15:44:13;;;;;;;1.20;1.00;;;;;;;;;;8321010;28;20320;-59
2022/09/23 15:48:15;;;;;;;1.33;1.10;;;;;;;;;;8320774;28;20139;-59
2022/09/23 15:52:15;;;;;;;1.58;1.08;;;;;;;;;;8321576;28;20021;-59
2022/09/23 15:56:15;;;;;;;1.47;1.10;;;;;;;;;;8322150;28;20090;-58
2022/09/23 16:00:16;;;;;;;1.45;1.20;;;;;;;;;;8322516;28;20031;-59
2022/09/23 16:04:16;;;;;;;4.17;1.00;;;;;;;;;;8322849;28;20956;-60
2022/09/23 16:08:20;;;;;;;2.47;1.00;;;;;;;;;;8321329;28;20351;-59
2022/09/23 16:12:20;;;;;;;2.13;1.30;;;;;;;;;;8324320;28;20017;-59
2022/09/23 16:16:20;;;;;;;1.45;1.27;;;;;;;;;;8322458;28;20037;-58
2022/09/23 16:20:20;;;;;;;1.10;1.10;;;;;;;;;;8323397;28;20020;-58
2022/09/23 16:24:20;;;;;;;1.33;1.08;;;;;;;;;;8320574;28;20025;-59
2022/09/23 16:28:21;;;;;;;1.83;1.20;;;;;;;;;;8322087;28;20025;-60
2022/09/23 16:32:22;;;;;;;3.15;1.20;;;;;;;;;;8321381;28;20337;-58
2022/09/23 16:36:27;;;;;;;1.55;1.13;;;;;;;;;;8321824;28;20889;-59
2022/09/23 16:40:27;;;;;;;2.97;1.50;;;;;;;;;;8324953;28;20023;-59
2022/09/23 16:44:31;;;;;;;6.47;1.30;;;;;;;;;;8331557;28;20342;-58
2022/09/23 16:48:32;;;;;;;2.20;1.10;;;;;;;;;;8327055;28;20037;-58
2022/09/23 16:52:32;;;;;;;1.60;1.20;;;;;;;;;;8325196;28;20104;-59
2022/09/23 16:56:32;;;;;;;1.38;1.20;;;;;;;;;;8328043;28;20523;-60
2022/09/23 17:04:51;;;;;;;2.13;1.30;;;;;;;;;;8329217;28;20400;-60
2022/09/23 17:08:51;;;;;;;1.20;1.10;;;;;;;;;;8328107;28;20030;-60
2022/09/23 17:12:53;;;;;;;3.45;1.30;;;;;;;;;;8326459;28;20126;-58
2022/09/23 17:16:53;;;;;;;1.77;1.30;;;;;;;;;;8325007;28;20043;-58
2022/09/23 17:21:01;;;;;;;2.20;1.10;;;;;;;;;;8328849;28;20016;-58
2022/09/23 17:25:02;;;;;;;1.48;1.30;;;;;;;;;;8320725;28;20681;-58
2022/09/23 17:29:03;;;;;;;1.60;1.40;;;;;;;;;;8326179;28;20132;-58
2022/09/23 17:33:03;;;;;;;1.98;1.50;;;;;;;;;;8322220;28;20065;-60
2022/09/23 17:37:03;;;;;;;2.22;1.63;;;;;;;;;;8324381;28;20048;-59
2022/09/23 17:41:04;;;;;;;2.47;1.58;;;;;;;;;;8326100;28;20033;-59
2022/09/23 17:45:05;;;;;;;3.10;2.05;;;;;;;;;;8326756;28;20032;-60
2022/09/23 17:49:07;;;;;;;3.85;1.70;;;;;;;;;;8327523;28;20144;-58
2022/09/23 17:53:07;;;;;;;3.75;1.77;;;;;;;;;;8325317;28;20047;-58
2022/09/23 17:57:07;;;;;;;2.50;1.70;;;;;;;;;;8324541;28;20027;-59
2022/09/23 18:01:10;;;;;;;1.77;1.55;;;;;;;;;;8326043;28;20571;-58
2022/09/23 18:05:11;;;;;;;3.00;1.60;;;;;;;;;;8325171;28;20032;-58
2022/09/23 18:09:11;;;;;;;3.65;1.20;;;;;;;;;;8320518;28;20121;-58
2022/09/23 18:13:11;;;;;;;1.50;1.30;;;;;;;;;;8323455;28;20024;-58
2022/09/23 18:17:12;;;;;;;2.00;1.70;;;;;;;;;;8321176;28;20287;-57
2022/09/23 18:21:12;;;;;;;2.55;1.60;;;;;;;;;;8323316;28;20283;-57
2022/09/23 18:25:12;;;;;;;1.70;1.60;;;;;;;;;;8325801;28;20128;-58
2022/09/23 18:29:14;;;;;;;3.17;1.63;;;;;;;;;;8321287;28;20031;-60
2022/09/23 18:33:14;;;;;;;2.83;1.42;;;;;;;;;;8322545;28;20131;-58
2022/09/23 18:37:15;;;;;;;2.75;1.60;;;;;;;;;;8324747;28;20056;-58
2022/09/23 18:41:15;;;;;;;2.03;1.42;;;;;;;;;;8324601;28;20026;-58
2022/09/23 18:45:15;;;;;;;4.75;1.45;;;;;;;;;;8321790;28;20038;-58
2022/09/23 18:53:35;;;;;;;6.32;1.50;;;;;;;;;;8325115;28;20045;-58
2022/09/23 18:57:36;;;;;;;1.90;1.33;;;;;;;;;;8320220;28;20021;-60
2022/09/23 19:01:36;;;;;;;1.92;1.40;;;;;;;;;;8319084;28;20502;-58
2022/09/23 19:05:36;;;;;;;2.23;1.40;;;;;;;;;;8326252;28;20908;-58
2022/09/23 19:09:39;;;;;;;3.47;1.30;;;;;;;;;;8321991;28;20277;-60
2022/09/23 19:13:40;;;;;;;1.40;1.30;;;;;;;;;;8322495;28;20029;-59
2022/09/23 19:17:40;;;;;;;1.50;1.33;;;;;;;;;;8326949;28;20038;-58
2022/09/23 19:21:40;;;;;;;5.18;1.60;;;;;;;;;;8319910;28;20121;-58
2022/09/23 19:25:41;;;;;;;1.63;1.35;;;;;;;;;;8317226;28;20037;-58
2022/09/23 19:29:41;;;;;;;7.47;1.65;;;;;;;;;;8321640;28;20079;-58
2022/09/23 19:33:42;;;;;;;3.92;2.03;;;;;;;;;;8317943;28;20033;-58
2022/09/23 19:37:45;;;;;;;4.88;2.95;;;;;;;;;;8321662;28;20029;-58
2022/09/23 19:41:47;;;;;;;4.57;3.17;;;;;;;;;;8322523;28;20020;-58
2022/09/23 19:45:53;;;;;;;3.92;2.45;;;;;;;;;;8315454;28;20036;-58
2022/09/23 19:49:53;;;;;;;6.05;3.00;;;;;;;;;;8319559;28;20029;-58
2022/09/23 19:53:54;;;;;;;5.95;2.80;;;;;;;;;;8319299;28;20082;-58
2022/09/23 19:57:54;;;;;;;4.43;2.25;;;;;;;;;;8323418;28;20036;-58
2022/09/23 20:01:54;;;;;;;2.78;1.90;;;;;;;;;;8321753;28;20037;-58
2022/09/23 20:05:55;;;;;;;3.58;1.95;;;;;;;;;;8321491;28;20147;-57
2022/09/23 20:09:56;;;;;;;5.35;2.83;;;;;;;;;;8321124;28;20382;-58
2022/09/23 20:14:00;;;;;;;4.25;2.85;;;;;;;;;;8325871;28;20025;-57
2022/09/23 20:18:00;;;;;;;5.10;2.65;;;;;;;;;;8328696;28;20036;-58
2022/09/23 20:30:38;;;;;;;3.55;2.78;;;;;;;;;;8323225;28;20126;-58
2022/09/23 20:34:38;;;;;;;3.63;2.85;;;;;;;;;;8328520;28;20133;-59
2022/09/23 20:38:39;;;;;;;2.03;1.80;;;;;;;;;;8322699;28;20028;-58
2022/09/23 20:42:39;;;;;;;4.10;1.50;;;;;;;;;;8326510;28;20060;-59
2022/09/23 20:46:41;;;;;;;4.40;1.80;;;;;;;;;;8324121;28;20612;-58
2022/09/23 20:50:41;;;;;;;3.25;1.70;;;;;;;;;;8322189;28;20110;-58
2022/09/23 20:54:41;;;;;;;2.60;1.50;;;;;;;;;;8323401;28;20574;-58
2022/09/23 20:58:43;;;;;;;3.13;1.50;;;;;;;;;;8324905;28;20033;-58
2022/09/23 21:02:43;;;;;;;5.00;1.70;;;;;;;;;;8320501;28;20572;-58
2022/09/23 21:06:43;;;;;;;2.50;1.70;;;;;;;;;;8324027;28;20063;-58
2022/09/23 21:10:51;;;;;;;2.30;1.52;;;;;;;;;;8323580;28;20029;-58
2022/09/23 21:14:52;;;;;;;4.88;2.25;;;;;;;;;;8323155;28;20025;-58
2022/09/23 21:18:52;;;;;;;2.85;1.85;;;;;;;;;;8325393;28;20044;-64
2022/09/23 21:22:52;;;;;;;3.08;1.63;;;;;;;;;;8323213;28;20099;-58
2022/09/23 21:26:52;;;;;;;2.65;1.90;;;;;;;;;;8323772;28;20025;-59
2022/09/23 21:30:56;;;;;;;1.63;1.52;;;;;;;;;;8322934;28;20041;-58
2022/09/23 21:34:56;;;;;;;2.60;1.42;;;;;;;;;;8329402;28;20025;-59
2022/09/23 21:38:56;;;;;;;1.75;1.30;;;;;;;;;;8327005;28;20512;-58
2022/09/23 21:42:58;;;;;;;3.38;1.42;;;;;;;;;;8326131;28;20022;-60
2022/09/23 21:46:58;;;;;;;3.90;1.50;;;;;;;;;;8326988;28;20044;-60
2022/09/23 21:51:00;;;;;;;2.33;1.30;;;;;;;;;;8325237;28;20028;-58
2022/09/23 21:55:00;;;;;;;1.30;1.15;;;;;;;;;;8325294;28;20033;-65
2022/09/23 21:59:00;;;;;;;2.05;1.25;;;;;;;;;;8328165;28;20129;-58
2022/09/23 22:03:00;;;;;;;1.50;1.30;;;;;;;;;;8326624;28;20167;-58
2022/09/23 22:07:01;;;;;;;2.63;1.30;;;;;;;;;;8324976;28;20048;-59
2022/09/23 22:11:02;;;;;;;1.73;1.10;;;;;;;;;;8325803;28;20032;-59
2022/09/23 22:15:03;;;;;;;1.83;1.30;;;;;;;;;;8323597;28;20127;-58
2022/09/23 22:19:05;;;;;;;1.85;1.08;;;;;;;;;;8321380;28;20485;-57
2022/09/23 22:23:05;;;;;;;2.65;1.33;;;;;;;;;;8326847;28;20095;-58
2022/09/23 22:27:06;;;;;;;1.23;1.13;;;;;;;;;;8323213;28;20024;-57
2022/09/23 22:35:26;;;;;;;1.95;1.27;;;;;;;;;;8321110;28;20032;-60
2022/09/23 22:39:28;;;;;;;4.50;1.30;;;;;;;;;;8323807;28;20029;-58
2022/09/23 22:43:28;;;;;;;2.83;1.20;;;;;;;;;;8325123;28;20258;-58
2022/09/23 22:47:28;;;;;;;1.30;1.00;;;;;;;;;;8323687;28;20029;-58
2022/09/23 22:51:28;;;;;;;2.88;1.20;;;;;;;;;;8325693;28;20179;-58
2022/09/23 22:55:29;;;;;;;7.68;1.30;;;;;;;;;;8325457;28;20025;-58
2022/09/23 22:59:29;;;;;;;1.17;1.05;;;;;;;;;;8323167;28;20036;-57
2022/09/23 23:03:32;;;;;;;5.83;1.20;;;;;;;;;;8322737;28;20036;-58
2022/09/23 23:07:33;;;;;;;3.97;1.65;;;;;;;;;;8322808;28;20021;-58
2022/09/23 23:11:34;;;;;;;3.08;1.40;;;;;;;;;;8318509;28;20513;-59
2022/09/23 23:15:36;;;;;;;1.03;0.93;;;;;;;;;;8322571;28;20071;-58
2022/09/23 23:19:37;;;;;;;1.52;1.20;;;;;;;;;;8322683;28;20033;-58
2022/09/23 23:23:38;;;;;;;5.40;1.10;;;;;;;;;;8322675;28;20084;-58
2022/09/23 23:27:39;;;;;;;1.13;1.02;;;;;;;;;;8321794;28;20026;-60
2022/09/23 23:31:39;;;;;;;1.88;1.30;;;;;;;;;;8324372;28;20050;-58
2022/09/23 23:35:48;;;;;;;2.67;1.50;;;;;;;;;;8322623;28;20035;-59
2022/09/23 23:39:48;;;;;;;1.92;1.00;;;;;;;;;;8323337;28;20127;-58
2022/09/23 23:43:55;;;;;;;1.23;1.13;;;;;;;;;;8320866;28;20113;-59
2022/09/23 23:47:55;;;;;;;1.13;1.08;;;;;;;;;;8323381;28;20627;-57
2022/09/23 23:51:56;;;;;;;1.30;1.20;;;;;;;;;;8333181;28;20100;-57
2022/09/23 23:55:59;;;;;;;1.42;1.23;;;;;;;;;;8327738;28;20036;-59
